sensor_id;sensor_type;location;lat;lon;timestamp;temperature;humidity
52397;DHT22;38322;53.108;6.308;2022-07-10T05:02:31;14.40;99.90
52397;DHT22;38322;53.108;6.308;2022-07-10T05:04:57;14.40;99.90
52397;DHT22;38322;53.108;6.308;2022-07-10T05:07:23;14.40;99.90
52397;DHT22;38322;53.108;6.308;2022-07-10T05:09:49;14.50;99.90
52397;DHT22;38322;53.108;6.308;2022-07-10T05:12:15;14.50;99.90
52397;DHT22;38322;53.108;6.308;2022-07-10T05:14:40;14.50;99.90
52397;DHT22;38322;53.108;6.308;2022-07-10T05:17:06;14.50;99.90
52397;DHT22;38322;53.108;6.308;2022-07-10T05:19:32;14.50;99.90
52397;DHT22;38322;53.108;6.308;2022-07-10T05:21:58;14.60;99.90
52397;DHT22;38322;53.108;6.308;2022-07-10T05:24:23;14.60;99.90
52397;DHT22;38322;53.108;6.308;2022-07-10T05:26:49;14.70;99.90
52397;DHT22;38322;53.108;6.308;2022-07-10T05:29:15;14.70;99.90
52397;DHT22;38322;53.108;6.308;2022-07-10T05:31:41;14.70;99.90
52397;DHT22;38322;53.108;6.308;2022-07-10T05:34:06;14.80;99.90
52397;DHT22;38322;53.108;6.308;2022-07-10T05:36:32;14.80;99.90
52397;DHT22;38322;53.108;6.308;2022-07-10T05:38:58;14.80;99.90
52397;DHT22;38322;53.108;6.308;2022-07-10T05:41:24;14.80;99.90
52397;DHT22;38322;53.108;6.308;2022-07-10T05:43:50;14.70;99.90
52397;DHT22;38322;53.108;6.308;2022-07-10T05:46:16;14.80;99.90
52397;DHT22;38322;53.108;6.308;2022-07-10T05:48:42;14.80;99.90
52397;DHT22;38322;53.108;6.308;2022-07-10T05:51:08;14.80;99.90
52397;DHT22;38322;53.108;6.308;2022-07-10T05:53:33;14.90;99.90
52397;DHT22;38322;53.108;6.308;2022-07-10T05:56:00;14.90;99.90
52397;DHT22;38322;53.108;6.308;2022-07-10T05:58:26;14.90;99.90
52397;DHT22;38322;53.108;6.308;2022-07-10T06:00:52;15.00;99.90
52397;DHT22;38322;53.108;6.308;2022-07-10T06:03:18;15.00;99.90
52397;DHT22;38322;53.108;6.308;2022-07-10T06:05:44;14.90;99.90
52397;DHT22;38322;53.108;6.308;2022-07-10T06:08:11;14.90;99.90
52397;DHT22;38322;53.108;6.308;2022-07-10T06:10:37;14.90;99.90
52397;DHT22;38322;53.108;6.308;2022-07-10T06:13:06;14.90;99.90
52397;DHT22;38322;53.108;6.308;2022-07-10T06:15:32;14.80;99.90
52397;DHT22;38322;53.108;6.308;2022-07-10T06:17:58;14.90;99.90
52397;DHT22;38322;53.108;6.308;2022-07-10T06:20:25;14.90;99.90
52397;DHT22;38322;53.108;6.308;2022-07-10T06:22:51;14.90;99.90
52397;DHT22;38322;53.108;6.308;2022-07-10T06:25:17;14.90;99.90
52397;DHT22;38322;53.108;6.308;2022-07-10T06:27:43;15.00;99.90
52397;DHT22;38322;53.108;6.308;2022-07-10T06:30:09;15.00;99.90
52397;DHT22;38322;53.108;6.308;2022-07-10T06:32:35;15.10;99.90
52397;DHT22;38322;53.108;6.308;2022-07-10T06:35:01;15.10;99.90
52397;DHT22;38322;53.108;6.308;2022-07-10T06:37:28;15.10;99.90
52397;DHT22;38322;53.108;6.308;2022-07-10T06:39:53;15.10;99.90
52397;DHT22;38322;53.108;6.308;2022-07-10T06:42:19;15.10;99.90
52397;DHT22;38322;53.108;6.308;2022-07-10T06:44:46;15.00;99.90
52397;DHT22;38322;53.108;6.308;2022-07-10T06:47:13;14.90;99.90
52397;DHT22;38322;53.108;6.308;2022-07-10T06:49:58;14.90;99.90
52397;DHT22;38322;53.108;6.308;2022-07-10T06:52:24;14.90;99.90
52397;DHT22;38322;53.108;6.308;2022-07-10T06:54:50;14.90;99.90
52397;DHT22;38322;53.108;6.308;2022-07-10T06:57:17;14.90;99.90
52397;DHT22;38322;53.108;6.308;2022-07-10T06:59:45;15.00;99.90
52397;DHT22;38322;53.108;6.308;2022-07-10T07:02:11;15.00;99.90
52397;DHT22;38322;53.108;6.308;2022-07-10T07:04:37;15.10;99.90
52397;DHT22;38322;53.108;6.308;2022-07-10T07:07:03;15.20;99.90
52397;DHT22;38322;53.108;6.308;2022-07-10T07:09:30;15.20;99.90
52397;DHT22;38322;53.108;6.308;2022-07-10T07:11:55;15.30;99.90
52397;DHT22;38322;53.108;6.308;2022-07-10T07:14:21;15.30;99.90
52397;DHT22;38322;53.108;6.308;2022-07-10T07:16:47;15.30;99.90
52397;DHT22;38322;53.108;6.308;2022-07-10T07:19:24;15.40;99.90
52397;DHT22;38322;53.108;6.308;2022-07-10T07:21:58;15.40;99.90
52397;DHT22;38322;53.108;6.308;2022-07-10T07:24:42;15.60;99.90
52397;DHT22;38322;53.108;6.308;2022-07-10T07:27:08;15.70;99.90
52397;DHT22;38322;53.108;6.308;2022-07-10T07:29:34;15.70;99.90
52397;DHT22;38322;53.108;6.308;2022-07-10T07:32:00;15.70;99.90
52397;DHT22;38322;53.108;6.308;2022-07-10T07:34:26;15.70;99.90
52397;DHT22;38322;53.108;6.308;2022-07-10T07:36:51;15.70;99.90
52397;DHT22;38322;53.108;6.308;2022-07-10T07:39:17;15.70;99.90
52397;DHT22;38322;53.108;6.308;2022-07-10T07:41:43;15.70;99.90
52397;DHT22;38322;53.108;6.308;2022-07-10T07:44:09;15.60;99.90
52397;DHT22;38322;53.108;6.308;2022-07-10T07:46:35;15.60;99.90
52397;DHT22;38322;53.108;6.308;2022-07-10T07:49:00;15.60;99.90
52397;DHT22;38322;53.108;6.308;2022-07-10T07:51:27;15.60;99.90
52397;DHT22;38322;53.108;6.308;2022-07-10T07:53:52;15.50;99.90
52397;DHT22;38322;53.108;6.308;2022-07-10T07:56:18;15.30;99.90
52397;DHT22;38322;53.108;6.308;2022-07-10T07:58:44;15.30;99.90
52397;DHT22;38322;53.108;6.308;2022-07-10T08:01:10;15.20;99.90
52397;DHT22;38322;53.108;6.308;2022-07-10T08:03:36;15.20;99.90
52397;DHT22;38322;53.108;6.308;2022-07-10T08:06:01;15.10;99.90
52397;DHT22;38322;53.108;6.308;2022-07-10T08:08:27;15.10;99.90
52397;DHT22;38322;53.108;6.308;2022-07-10T08:10:53;15.00;99.90
52397;DHT22;38322;53.108;6.308;2022-07-10T08:13:19;15.00;99.90
52397;DHT22;38322;53.108;6.308;2022-07-10T08:15:45;14.90;99.90
52397;DHT22;38322;53.108;6.308;2022-07-10T08:18:11;14.90;99.90
52397;DHT22;38322;53.108;6.308;2022-07-10T08:20:37;14.90;99.90
52397;DHT22;38322;53.108;6.308;2022-07-10T08:23:03;14.80;99.90
52397;DHT22;38322;53.108;6.308;2022-07-10T08:25:28;14.80;99.90
52397;DHT22;38322;53.108;6.308;2022-07-10T08:28:00;14.80;99.90
52397;DHT22;38322;53.108;6.308;2022-07-10T08:30:26;14.80;99.90
52397;DHT22;38322;53.108;6.308;2022-07-10T08:32:52;14.80;99.90
52397;DHT22;38322;53.108;6.308;2022-07-10T08:35:18;14.80;99.90
52397;DHT22;38322;53.108;6.308;2022-07-10T08:37:44;14.90;99.90
52397;DHT22;38322;53.108;6.308;2022-07-10T08:40:13;15.00;99.90
52397;DHT22;38322;53.108;6.308;2022-07-10T08:42:40;15.00;99.90
52397;DHT22;38322;53.108;6.308;2022-07-10T08:45:07;15.00;99.90
52397;DHT22;38322;53.108;6.308;2022-07-10T08:47:35;15.10;99.90
52397;DHT22;38322;53.108;6.308;2022-07-10T08:50:01;15.10;99.90
52397;DHT22;38322;53.108;6.308;2022-07-10T08:52:33;15.20;99.90
52397;DHT22;38322;53.108;6.308;2022-07-10T08:54:59;15.10;99.90
52397;DHT22;38322;53.108;6.308;2022-07-10T08:57:26;15.20;99.90
52397;DHT22;38322;53.108;6.308;2022-07-10T08:59:52;15.20;99.90
52397;DHT22;38322;53.108;6.308;2022-07-10T09:02:19;15.20;99.90
52397;DHT22;38322;53.108;6.308;2022-07-10T09:04:45;15.30;99.90
52397;DHT22;38322;53.108;6.308;2022-07-10T09:07:12;15.30;99.90
52397;DHT22;38322;53.108;6.308;2022-07-10T09:09:52;15.40;99.90
52397;DHT22;38322;53.108;6.308;2022-07-10T09:12:20;15.40;99.90
52397;DHT22;38322;53.108;6.308;2022-07-10T09:14:46;15.40;99.90
52397;DHT22;38322;53.108;6.308;2022-07-10T09:17:12;15.50;99.90
52397;DHT22;38322;53.108;6.308;2022-07-10T09:19:39;15.50;99.90
52397;DHT22;38322;53.108;6.308;2022-07-10T09:22:07;15.50;99.90
52397;DHT22;38322;53.108;6.308;2022-07-10T09:24:38;15.50;99.90
52397;DHT22;38322;53.108;6.308;2022-07-10T09:27:05;15.50;99.90
52397;DHT22;38322;53.108;6.308;2022-07-10T09:29:32;15.50;99.90
52397;DHT22;38322;53.108;6.308;2022-07-10T09:32:00;15.50;99.90
52397;DHT22;38322;53.108;6.308;2022-07-10T09:34:37;15.50;99.90
52397;DHT22;38322;53.108;6.308;2022-07-10T09:39:58;15.50;99.90
52397;DHT22;38322;53.108;6.308;2022-07-10T09:44:51;15.50;99.90
52397;DHT22;38322;53.108;6.308;2022-07-10T09:47:23;15.40;99.90
52397;DHT22;38322;53.108;6.308;2022-07-10T09:49:49;15.40;99.90
52397;DHT22;38322;53.108;6.308;2022-07-10T09:52:18;15.40;99.90
52397;DHT22;38322;53.108;6.308;2022-07-10T09:54:45;15.40;99.90
52397;DHT22;38322;53.108;6.308;2022-07-10T09:57:13;15.50;99.90
52397;DHT22;38322;53.108;6.308;2022-07-10T09:59:42;15.50;99.90
52397;DHT22;38322;53.108;6.308;2022-07-10T10:02:09;15.50;99.90
52397;DHT22;38322;53.108;6.308;2022-07-10T10:04:36;15.50;99.90
52397;DHT22;38322;53.108;6.308;2022-07-10T10:07:03;15.50;99.90
52397;DHT22;38322;53.108;6.308;2022-07-10T10:09:36;15.50;99.90
52397;DHT22;38322;53.108;6.308;2022-07-10T10:12:08;15.60;99.90
52397;DHT22;38322;53.108;6.308;2022-07-10T10:14:38;15.60;99.90
52397;DHT22;38322;53.108;6.308;2022-07-10T10:17:05;15.60;99.90
52397;DHT22;38322;53.108;6.308;2022-07-10T10:19:32;15.70;99.90
52397;DHT22;38322;53.108;6.308;2022-07-10T10:22:18;15.90;99.90
52397;DHT22;38322;53.108;6.308;2022-07-10T10:24:44;16.10;99.90
52397;DHT22;38322;53.108;6.308;2022-07-10T10:27:11;16.30;99.90
52397;DHT22;38322;53.108;6.308;2022-07-10T10:29:38;16.40;99.90
52397;DHT22;38322;53.108;6.308;2022-07-10T10:32:04;16.50;99.90
52397;DHT22;38322;53.108;6.308;2022-07-10T10:34:41;16.60;99.90
52397;DHT22;38322;53.108;6.308;2022-07-10T10:39:55;16.80;99.90
52397;DHT22;38322;53.108;6.308;2022-07-10T10:42:37;16.90;99.90
52397;DHT22;38322;53.108;6.308;2022-07-10T10:48:08;17.10;99.90
52397;DHT22;38322;53.108;6.308;2022-07-10T10:50:46;17.20;99.90
52397;DHT22;38322;53.108;6.308;2022-07-10T10:53:15;17.40;99.90
52397;DHT22;38322;53.108;6.308;2022-07-10T10:58:26;17.30;99.90
52397;DHT22;38322;53.108;6.308;2022-07-10T11:00:52;17.20;99.90
52397;DHT22;38322;53.108;6.308;2022-07-10T11:03:27;17.10;99.90
52397;DHT22;38322;53.108;6.308;2022-07-10T11:05:54;17.10;99.90
52397;DHT22;38322;53.108;6.308;2022-07-10T11:08:41;16.90;99.90
52397;DHT22;38322;53.108;6.308;2022-07-10T11:13:58;16.80;99.90
52397;DHT22;38322;53.108;6.308;2022-07-10T11:16:24;16.70;99.90
52397;DHT22;38322;53.108;6.308;2022-07-10T11:18:54;16.60;99.90
52397;DHT22;38322;53.108;6.308;2022-07-10T11:21:26;16.50;99.90
52397;DHT22;38322;53.108;6.308;2022-07-10T11:24:33;16.60;99.90
52397;DHT22;38322;53.108;6.308;2022-07-10T11:27:20;16.70;99.90
52397;DHT22;38322;53.108;6.308;2022-07-10T11:29:58;16.70;99.90
52397;DHT22;38322;53.108;6.308;2022-07-10T11:32:24;16.60;99.90
52397;DHT22;38322;53.108;6.308;2022-07-10T11:34:50;16.60;99.90
52397;DHT22;38322;53.108;6.308;2022-07-10T11:37:16;16.60;99.90
52397;DHT22;38322;53.108;6.308;2022-07-10T11:39:42;16.50;99.90
52397;DHT22;38322;53.108;6.308;2022-07-10T11:42:09;16.40;99.90
52397;DHT22;38322;53.108;6.308;2022-07-10T11:44:35;16.40;99.90
52397;DHT22;38322;53.108;6.308;2022-07-10T11:47:00;16.30;99.90
52397;DHT22;38322;53.108;6.308;2022-07-10T11:49:28;16.40;99.90
52397;DHT22;38322;53.108;6.308;2022-07-10T11:52:01;16.40;99.90
52397;DHT22;38322;53.108;6.308;2022-07-10T11:54:27;16.30;99.90
52397;DHT22;38322;53.108;6.308;2022-07-10T11:56:53;16.30;99.90
52397;DHT22;38322;53.108;6.308;2022-07-10T11:59:27;16.30;99.90
52397;DHT22;38322;53.108;6.308;2022-07-10T12:01:54;16.40;99.90
52397;DHT22;38322;53.108;6.308;2022-07-10T12:04:22;16.50;99.90
52397;DHT22;38322;53.108;6.308;2022-07-10T12:06:50;16.50;99.90
52397;DHT22;38322;53.108;6.308;2022-07-10T12:09:19;16.60;99.90
52397;DHT22;38322;53.108;6.308;2022-07-10T12:12:02;16.50;99.90
52397;DHT22;38322;53.108;6.308;2022-07-10T12:14:28;16.60;99.90
52397;DHT22;38322;53.108;6.308;2022-07-10T12:16:55;16.60;99.90
52397;DHT22;38322;53.108;6.308;2022-07-10T12:19:26;16.80;99.90
52397;DHT22;38322;53.108;6.308;2022-07-10T12:21:53;16.90;99.90
52397;DHT22;38322;53.108;6.308;2022-07-10T12:24:20;17.00;99.90
52397;DHT22;38322;53.108;6.308;2022-07-10T12:26:47;17.10;99.90
52397;DHT22;38322;53.108;6.308;2022-07-10T12:31:43;17.00;99.90
52397;DHT22;38322;53.108;6.308;2022-07-10T12:34:11;16.90;99.90
52397;DHT22;38322;53.108;6.308;2022-07-10T12:36:46;16.90;99.90
52397;DHT22;38322;53.108;6.308;2022-07-10T12:39:14;16.80;99.90
52397;DHT22;38322;53.108;6.308;2022-07-10T12:42:01;16.70;99.90
52397;DHT22;38322;53.108;6.308;2022-07-10T12:44:36;16.70;99.90
52397;DHT22;38322;53.108;6.308;2022-07-10T12:47:09;16.70;99.90
52397;DHT22;38322;53.108;6.308;2022-07-10T12:49:49;16.70;99.90
52397;DHT22;38322;53.108;6.308;2022-07-10T12:52:30;16.60;99.90
52397;DHT22;38322;53.108;6.308;2022-07-10T12:57:32;16.60;99.90
52397;DHT22;38322;53.108;6.308;2022-07-10T13:00:05;16.60;99.90
52397;DHT22;38322;53.108;6.308;2022-07-10T13:02:31;16.60;99.90
52397;DHT22;38322;53.108;6.308;2022-07-10T13:04:58;16.50;99.90
52397;DHT22;38322;53.108;6.308;2022-07-10T13:07:31;16.60;99.90
52397;DHT22;38322;53.108;6.308;2022-07-10T13:10:00;16.60;99.90
52397;DHT22;38322;53.108;6.308;2022-07-10T13:12:26;16.70;99.90
52397;DHT22;38322;53.108;6.308;2022-07-10T13:14:52;16.70;99.90
52397;DHT22;38322;53.108;6.308;2022-07-10T13:17:18;16.80;99.90
52397;DHT22;38322;53.108;6.308;2022-07-10T13:19:44;16.90;99.90
52397;DHT22;38322;53.108;6.308;2022-07-10T13:22:09;17.00;99.90
52397;DHT22;38322;53.108;6.308;2022-07-10T13:24:35;17.10;99.90
52397;DHT22;38322;53.108;6.308;2022-07-10T13:27:01;17.20;99.90
52397;DHT22;38322;53.108;6.308;2022-07-10T13:29:28;17.20;99.90
52397;DHT22;38322;53.108;6.308;2022-07-10T13:31:53;17.20;99.90
52397;DHT22;38322;53.108;6.308;2022-07-10T13:34:19;17.10;99.90
52397;DHT22;38322;53.108;6.308;2022-07-10T13:36:45;17.00;99.90
52397;DHT22;38322;53.108;6.308;2022-07-10T13:39:11;17.10;99.90
52397;DHT22;38322;53.108;6.308;2022-07-10T13:41:37;17.20;99.90
52397;DHT22;38322;53.108;6.308;2022-07-10T13:44:03;17.30;99.90
52397;DHT22;38322;53.108;6.308;2022-07-10T13:46:29;17.60;99.90
52397;DHT22;38322;53.108;6.308;2022-07-10T13:48:55;17.80;99.90
52397;DHT22;38322;53.108;6.308;2022-07-10T13:51:22;18.10;99.90
52397;DHT22;38322;53.108;6.308;2022-07-10T13:53:48;18.30;99.90
52397;DHT22;38322;53.108;6.308;2022-07-10T13:56:14;18.40;99.90
52397;DHT22;38322;53.108;6.308;2022-07-10T13:58:40;18.50;99.90
52397;DHT22;38322;53.108;6.308;2022-07-10T14:01:05;18.50;99.90
52397;DHT22;38322;53.108;6.308;2022-07-10T14:03:32;18.50;99.90
52397;DHT22;38322;53.108;6.308;2022-07-10T14:05:58;18.60;99.90
52397;DHT22;38322;53.108;6.308;2022-07-10T14:08:24;18.60;99.90
52397;DHT22;38322;53.108;6.308;2022-07-10T14:10:50;18.70;99.90
52397;DHT22;38322;53.108;6.308;2022-07-10T14:13:16;18.70;99.90
52397;DHT22;38322;53.108;6.308;2022-07-10T14:15:43;18.60;99.90
52397;DHT22;38322;53.108;6.308;2022-07-10T14:18:10;18.50;99.90
52397;DHT22;38322;53.108;6.308;2022-07-10T14:20:36;18.50;99.90
52397;DHT22;38322;53.108;6.308;2022-07-10T14:23:21;18.50;99.90
52397;DHT22;38322;53.108;6.308;2022-07-10T14:25:48;18.40;99.90
52397;DHT22;38322;53.108;6.308;2022-07-10T14:28:14;18.40;99.90
52397;DHT22;38322;53.108;6.308;2022-07-10T14:30:40;18.40;99.90
52397;DHT22;38322;53.108;6.308;2022-07-10T14:33:06;18.40;99.90
52397;DHT22;38322;53.108;6.308;2022-07-10T14:35:32;18.40;99.90
52397;DHT22;38322;53.108;6.308;2022-07-10T14:37:58;18.40;99.90
52397;DHT22;38322;53.108;6.308;2022-07-10T14:40:24;18.40;99.90
52397;DHT22;38322;53.108;6.308;2022-07-10T14:42:49;18.30;99.90
52397;DHT22;38322;53.108;6.308;2022-07-10T14:45:15;18.30;99.90
52397;DHT22;38322;53.108;6.308;2022-07-10T14:47:41;18.20;99.90
52397;DHT22;38322;53.108;6.308;2022-07-10T14:50:07;18.20;99.90
52397;DHT22;38322;53.108;6.308;2022-07-10T14:52:33;18.20;99.90
52397;DHT22;38322;53.108;6.308;2022-07-10T14:54:59;18.20;99.90
52397;DHT22;38322;53.108;6.308;2022-07-10T14:57:27;18.20;99.90
52397;DHT22;38322;53.108;6.308;2022-07-10T14:59:53;18.20;99.90
52397;DHT22;38322;53.108;6.308;2022-07-10T15:02:19;18.20;99.90
52397;DHT22;38322;53.108;6.308;2022-07-10T15:04:45;18.10;99.90
52397;DHT22;38322;53.108;6.308;2022-07-10T15:10:42;18.20;99.90
52397;DHT22;38322;53.108;6.308;2022-07-10T15:13:12;18.20;99.90
52397;DHT22;38322;53.108;6.308;2022-07-10T15:15:38;18.20;99.90
52397;DHT22;38322;53.108;6.308;2022-07-10T15:18:03;18.30;99.90
52397;DHT22;38322;53.108;6.308;2022-07-10T15:20:29;18.40;99.90
52397;DHT22;38322;53.108;6.308;2022-07-10T15:23:15;18.50;99.90
52397;DHT22;38322;53.108;6.308;2022-07-10T15:26:38;18.50;99.90
52397;DHT22;38322;53.108;6.308;2022-07-10T15:29:04;18.60;99.90
52397;DHT22;38322;53.108;6.308;2022-07-10T15:31:30;18.60;99.90
52397;DHT22;38322;53.108;6.308;2022-07-10T15:33:55;18.70;99.90
52397;DHT22;38322;53.108;6.308;2022-07-10T15:36:28;18.60;99.90
52397;DHT22;38322;53.108;6.308;2022-07-10T15:38:53;18.70;99.90
52397;DHT22;38322;53.108;6.308;2022-07-10T15:41:19;18.70;99.90
52397;DHT22;38322;53.108;6.308;2022-07-10T15:43:45;18.70;99.90
52397;DHT22;38322;53.108;6.308;2022-07-10T15:46:11;18.70;99.90
52397;DHT22;38322;53.108;6.308;2022-07-10T15:48:39;18.70;99.90
52397;DHT22;38322;53.108;6.308;2022-07-10T15:51:05;18.60;99.90
52397;DHT22;38322;53.108;6.308;2022-07-10T15:53:32;18.70;99.90
52397;DHT22;38322;53.108;6.308;2022-07-10T15:55:58;18.70;99.90
52397;DHT22;38322;53.108;6.308;2022-07-10T15:58:24;18.70;99.90
52397;DHT22;38322;53.108;6.308;2022-07-10T16:00:49;18.60;99.90
52397;DHT22;38322;53.108;6.308;2022-07-10T16:03:15;18.60;99.90
52397;DHT22;38322;53.108;6.308;2022-07-10T16:05:41;18.60;99.90
52397;DHT22;38322;53.108;6.308;2022-07-10T16:08:07;18.60;99.90
52397;DHT22;38322;53.108;6.308;2022-07-10T16:10:33;18.70;99.90
52397;DHT22;38322;53.108;6.308;2022-07-10T16:12:58;18.60;99.90
52397;DHT22;38322;53.108;6.308;2022-07-10T16:15:24;18.70;99.90
52397;DHT22;38322;53.108;6.308;2022-07-10T16:17:50;18.70;99.90
52397;DHT22;38322;53.108;6.308;2022-07-10T16:20:16;18.70;99.90
52397;DHT22;38322;53.108;6.308;2022-07-10T16:22:42;18.80;99.90
52397;DHT22;38322;53.108;6.308;2022-07-10T16:25:08;18.80;99.90
52397;DHT22;38322;53.108;6.308;2022-07-10T16:27:52;18.90;99.90
52397;DHT22;38322;53.108;6.308;2022-07-10T16:30:18;18.90;99.90
52397;DHT22;38322;53.108;6.308;2022-07-10T16:32:45;18.90;99.90
52397;DHT22;38322;53.108;6.308;2022-07-10T16:35:10;18.90;99.90
52397;DHT22;38322;53.108;6.308;2022-07-10T16:37:36;18.90;99.90
52397;DHT22;38322;53.108;6.308;2022-07-10T16:40:02;18.90;99.90
52397;DHT22;38322;53.108;6.308;2022-07-10T16:42:28;18.90;99.90
52397;DHT22;38322;53.108;6.308;2022-07-10T16:44:55;18.90;99.90
52397;DHT22;38322;53.108;6.308;2022-07-10T16:47:21;19.00;99.90
52397;DHT22;38322;53.108;6.308;2022-07-10T16:49:49;19.10;99.90
52397;DHT22;38322;53.108;6.308;2022-07-10T16:52:14;19.00;99.90
52397;DHT22;38322;53.108;6.308;2022-07-10T16:54:41;19.00;99.90
52397;DHT22;38322;53.108;6.308;2022-07-10T16:57:07;19.10;99.90
52397;DHT22;38322;53.108;6.308;2022-07-10T16:59:35;19.00;99.90
52397;DHT22;38322;53.108;6.308;2022-07-10T17:02:02;19.00;99.90
52397;DHT22;38322;53.108;6.308;2022-07-10T17:04:28;19.10;99.90
52397;DHT22;38322;53.108;6.308;2022-07-10T17:07:02;19.00;99.90
52397;DHT22;38322;53.108;6.308;2022-07-10T17:09:28;18.90;99.90
52397;DHT22;38322;53.108;6.308;2022-07-10T17:11:54;18.80;99.90
52397;DHT22;38322;53.108;6.308;2022-07-10T17:14:20;18.80;99.90
52397;DHT22;38322;53.108;6.308;2022-07-10T17:16:46;18.70;99.90
52397;DHT22;38322;53.108;6.308;2022-07-10T17:19:12;18.70;99.90
52397;DHT22;38322;53.108;6.308;2022-07-10T17:21:38;18.60;99.90
52397;DHT22;38322;53.108;6.308;2022-07-10T17:24:04;18.60;99.90
52397;DHT22;38322;53.108;6.308;2022-07-10T17:26:30;18.60;99.90
52397;DHT22;38322;53.108;6.308;2022-07-10T17:28:56;18.50;99.90
52397;DHT22;38322;53.108;6.308;2022-07-10T17:31:22;18.50;99.90
52397;DHT22;38322;53.108;6.308;2022-07-10T17:33:48;18.50;99.90
52397;DHT22;38322;53.108;6.308;2022-07-10T17:36:13;18.50;99.90
52397;DHT22;38322;53.108;6.308;2022-07-10T17:38:39;18.50;99.90
52397;DHT22;38322;53.108;6.308;2022-07-10T17:41:05;18.50;99.90
52397;DHT22;38322;53.108;6.308;2022-07-10T17:43:32;18.50;99.90
52397;DHT22;38322;53.108;6.308;2022-07-10T17:45:58;18.50;99.90
52397;DHT22;38322;53.108;6.308;2022-07-10T17:48:25;18.50;99.90
52397;DHT22;38322;53.108;6.308;2022-07-10T17:50:52;18.50;99.90
52397;DHT22;38322;53.108;6.308;2022-07-10T17:53:19;18.40;99.90
52397;DHT22;38322;53.108;6.308;2022-07-10T17:55:45;18.40;99.90
52397;DHT22;38322;53.108;6.308;2022-07-10T17:58:10;18.30;99.90
52397;DHT22;38322;53.108;6.308;2022-07-10T18:00:38;18.20;99.90
52397;DHT22;38322;53.108;6.308;2022-07-10T18:03:04;18.20;99.90
52397;DHT22;38322;53.108;6.308;2022-07-10T18:05:30;18.10;99.90
52397;DHT22;38322;53.108;6.308;2022-07-10T18:07:56;18.10;99.90
52397;DHT22;38322;53.108;6.308;2022-07-10T18:10:22;18.10;99.90
52397;DHT22;38322;53.108;6.308;2022-07-10T18:12:48;18.00;99.90
52397;DHT22;38322;53.108;6.308;2022-07-10T18:15:15;18.00;99.90
52397;DHT22;38322;53.108;6.308;2022-07-10T18:17:41;18.00;99.90
52397;DHT22;38322;53.108;6.308;2022-07-10T18:20:08;17.90;99.90
52397;DHT22;38322;53.108;6.308;2022-07-10T18:22:34;17.90;99.90
52397;DHT22;38322;53.108;6.308;2022-07-10T18:25:00;17.90;99.90
52397;DHT22;38322;53.108;6.308;2022-07-10T18:27:26;17.90;99.90
52397;DHT22;38322;53.108;6.308;2022-07-10T18:29:52;17.80;99.90
52397;DHT22;38322;53.108;6.308;2022-07-10T18:32:18;17.80;99.90
52397;DHT22;38322;53.108;6.308;2022-07-10T18:35:04;17.70;99.90
52397;DHT22;38322;53.108;6.308;2022-07-10T18:37:30;17.70;99.90
52397;DHT22;38322;53.108;6.308;2022-07-10T18:39:56;17.70;99.90
52397;DHT22;38322;53.108;6.308;2022-07-10T18:42:22;17.70;99.90
52397;DHT22;38322;53.108;6.308;2022-07-10T18:44:47;17.70;99.90
52397;DHT22;38322;53.108;6.308;2022-07-10T18:47:14;17.70;99.90
52397;DHT22;38322;53.108;6.308;2022-07-10T18:49:39;17.70;99.90
52397;DHT22;38322;53.108;6.308;2022-07-10T18:52:05;17.60;99.90
52397;DHT22;38322;53.108;6.308;2022-07-10T18:54:31;17.50;99.90
52397;DHT22;38322;53.108;6.308;2022-07-10T18:56:57;17.50;99.90
52397;DHT22;38322;53.108;6.308;2022-07-10T18:59:23;17.50;99.90
52397;DHT22;38322;53.108;6.308;2022-07-10T19:01:49;17.40;99.90
52397;DHT22;38322;53.108;6.308;2022-07-10T19:04:15;17.40;99.90
52397;DHT22;38322;53.108;6.308;2022-07-10T19:06:41;17.40;99.90
52397;DHT22;38322;53.108;6.308;2022-07-10T19:09:07;17.40;99.90
52397;DHT22;38322;53.108;6.308;2022-07-10T19:11:33;17.30;99.90
52397;DHT22;38322;53.108;6.308;2022-07-10T19:14:01;17.30;99.90
52397;DHT22;38322;53.108;6.308;2022-07-10T19:16:27;17.30;99.90
52397;DHT22;38322;53.108;6.308;2022-07-10T19:18:53;17.20;99.90
52397;DHT22;38322;53.108;6.308;2022-07-10T19:21:21;17.20;99.90
52397;DHT22;38322;53.108;6.308;2022-07-10T19:23:47;17.20;99.90
52397;DHT22;38322;53.108;6.308;2022-07-10T19:26:14;17.20;99.90
52397;DHT22;38322;53.108;6.308;2022-07-10T19:28:41;17.10;99.90
52397;DHT22;38322;53.108;6.308;2022-07-10T19:31:07;17.10;99.90
52397;DHT22;38322;53.108;6.308;2022-07-10T19:33:33;17.10;99.90
52397;DHT22;38322;53.108;6.308;2022-07-10T19:36:01;17.10;99.90
52397;DHT22;38322;53.108;6.308;2022-07-10T19:38:27;17.00;99.90
52397;DHT22;38322;53.108;6.308;2022-07-10T19:40:53;17.00;99.90
52397;DHT22;38322;53.108;6.308;2022-07-10T19:43:20;17.00;99.90
52397;DHT22;38322;53.108;6.308;2022-07-10T19:45:46;17.00;99.90
52397;DHT22;38322;53.108;6.308;2022-07-10T19:48:12;16.90;99.90
52397;DHT22;38322;53.108;6.308;2022-07-10T19:50:39;16.90;99.90
52397;DHT22;38322;53.108;6.308;2022-07-10T19:53:04;16.90;99.90
52397;DHT22;38322;53.108;6.308;2022-07-10T19:55:32;16.90;99.90
52397;DHT22;38322;53.108;6.308;2022-07-10T19:57:58;16.90;99.90
52397;DHT22;38322;53.108;6.308;2022-07-10T20:00:24;16.90;99.90
